createdAt,value
2022-08-01T00:09:50.449Z,70.07
2022-08-01T00:24:46.604Z,69.9
2022-08-01T00:39:42.032Z,70.06
2022-08-01T00:54:38.245Z,70.79
2022-08-01T01:09:34.055Z,71
2022-08-01T01:24:30.579Z,72.05
2022-08-01T01:39:27.195Z,72.78
2022-08-01T01:54:23.597Z,74.04
2022-08-01T02:09:20.021Z,74.42
2022-08-01T02:24:16.326Z,75.72
2022-08-01T02:39:12.416Z,76.49
2022-08-01T02:54:08.749Z,78.92
2022-08-01T03:09:04.857Z,80.09
2022-08-01T03:24:01.283Z,80.84
2022-08-01T03:38:57.473Z,81.12
2022-08-01T03:53:53.460Z,81.6
2022-08-01T04:08:49.632Z,82.36
2022-08-01T04:23:45.607Z,82.48
2022-08-01T04:38:42.034Z,83.05
2022-08-01T04:53:38.387Z,82.67
2022-08-01T05:08:34.594Z,82.63
2022-08-01T05:23:42.790Z,82.64
2022-08-01T05:38:27.117Z,81.46
2022-08-01T05:53:23.495Z,82.36
2022-08-01T06:08:19.867Z,82.69
2022-08-01T06:23:31.439Z,81.26
2022-08-01T06:38:12.473Z,80.79
2022-08-01T06:53:08.427Z,79.68
2022-08-01T07:08:05.511Z,76.04
2022-08-01T07:23:02.278Z,78.14
2022-08-01T07:37:58.699Z,77.17
2022-08-01T07:52:54.353Z,78.25
2022-08-01T08:07:50.367Z,74.48
2022-08-01T08:22:46.721Z,76.02
2022-08-01T08:37:47.454Z,71.79
2022-08-01T08:52:39.874Z,74.52
2022-08-01T09:07:35.964Z,72.65
2022-08-01T09:22:32.308Z,70.13
2022-08-01T09:37:28.916Z,65.1
2022-08-01T09:52:25.814Z,72.28
2022-08-01T10:07:21.415Z,77.77
2022-08-01T10:22:17.465Z,77.59
2022-08-01T10:37:14.076Z,67.12
2022-08-01T10:52:10.575Z,60.16
2022-08-01T11:07:10.004Z,51.64
2022-08-01T11:22:04.424Z,60.69
2022-08-01T11:37:00.459Z,62.91
2022-08-01T11:51:56.119Z,80.8
2022-08-01T12:06:52.461Z,77.21
2022-08-01T12:21:50.338Z,73.37
2022-08-01T12:36:44.810Z,64.74
2022-08-01T12:51:41.613Z,63.92
2022-08-01T13:06:37.986Z,68.79
2022-08-01T13:21:52.374Z,65.64
2022-08-01T13:36:30.657Z,64.81
2022-08-01T13:51:27.062Z,65.58
2022-08-01T14:06:23.253Z,62.06
2022-08-01T14:21:19.591Z,62.01
2022-08-01T14:36:28.868Z,61.94
2022-08-01T14:51:12.152Z,59.87
2022-08-01T15:06:08.714Z,60.37
2022-08-01T15:21:04.954Z,59.1
2022-08-01T15:36:01.280Z,48.81
2022-08-01T15:50:58.253Z,52.04
2022-08-01T16:05:53.924Z,55.87
2022-08-01T16:20:50.093Z,56.93
2022-08-01T16:35:46.867Z,55.42
2022-08-01T16:50:42.781Z,51.69
2022-08-01T17:05:39.184Z,49.46
2022-08-01T17:20:35.625Z,53.24
2022-08-01T17:35:31.455Z,52.67
2022-08-01T17:50:27.483Z,53.4
2022-08-01T18:05:23.640Z,54.2
2022-08-01T18:20:19.687Z,56.28
2022-08-01T18:35:16.269Z,57.52
2022-08-01T18:50:12.712Z,58.76
2022-08-01T19:05:08.979Z,61.5
2022-08-01T19:20:04.802Z,63.44
2022-08-01T19:35:00.566Z,65.93
2022-08-01T19:49:56.132Z,68.93
2022-08-01T20:04:52.087Z,72.89
2022-08-01T20:19:48.287Z,78.01
2022-08-01T20:34:43.714Z,80.5
2022-08-01T20:49:39.875Z,84.49
2022-08-01T22:04:19.799Z,93.65
2022-08-01T22:19:29.562Z,95.48
2022-08-01T22:34:11.582Z,99.51
2022-08-01T22:49:08.832Z,100
2022-08-01T23:04:03.720Z,100
2022-08-01T23:18:59.432Z,100
2022-08-01T23:33:55.198Z,100
2022-08-01T23:48:51.059Z,100
